Time;durP1;ratioP1;P1;durP2;ratioP2;P2;SDS_P1;SDS_P2;PMS_P1;PMS_P2;Temp;Humidity;BMP_temperature;BMP_pressure;BME280_temperature;BME280_humidity;BME280_pressure;Samples;Min_cycle;Max_cycle;Signal;HPM_P1;HPM_P2
2022/11/21 00:00:09;;;;;;;11.23;9.47;;;-0.60;99.90;;;;;;5014243;28;20209;-46
2022/11/21 00:02:36;;;;;;;15.50;10.60;;;-0.60;99.90;;;;;;5019005;28;20209;-43
2022/11/21 00:05:02;;;;;;;11.40;10.17;;;-0.60;99.90;;;;;;5015434;28;20232;-47
2022/11/21 00:07:29;;;;;;;13.27;10.87;;;-0.70;99.90;;;;;;5022947;28;20232;-46
2022/11/21 00:10:03;;;;;;;14.97;10.53;;;-0.60;99.90;;;;;;5013910;28;20205;-43
2022/11/21 00:12:30;;;;;;;14.37;10.00;;;-0.50;99.90;;;;;;5022699;28;20304;-46
2022/11/21 00:14:58;;;;;;;15.73;9.77;;;-0.50;99.90;;;;;;5005899;28;20221;-43
2022/11/21 00:17:25;;;;;;;12.67;10.07;;;-0.60;99.90;;;;;;5017874;28;20200;-45
2022/11/21 00:19:52;;;;;;;14.50;9.87;;;-0.60;99.90;;;;;;5013225;28;20769;-47
2022/11/21 00:22:19;;;;;;;12.17;9.37;;;-0.60;99.90;;;;;;5023279;28;20299;-42
2022/11/21 00:24:46;;;;;;;12.60;9.43;;;-0.60;99.90;;;;;;5013413;28;20463;-44
2022/11/21 00:27:13;;;;;;;14.93;9.90;;;-0.60;99.90;;;;;;5023479;28;20197;-43
2022/11/21 00:29:40;;;;;;;13.37;10.13;;;-0.60;99.90;;;;;;5005382;28;20574;-45
2022/11/21 00:32:08;;;;;;;15.90;10.83;;;-0.60;99.90;;;;;;5016158;28;20343;-45
2022/11/21 00:34:35;;;;;;;13.47;10.80;;;-0.60;99.90;;;;;;5019181;28;20679;-45
2022/11/21 00:37:02;;;;;;;13.70;10.50;;;-0.60;99.90;;;;;;5017173;28;20204;-43
2022/11/21 00:39:28;;;;;;;13.97;10.93;;;-0.60;99.90;;;;;;5022677;28;20205;-43
2022/11/21 00:41:55;;;;;;;16.10;10.83;;;-0.60;99.90;;;;;;5013258;28;20196;-42
2022/11/21 00:44:22;;;;;;;16.50;11.23;;;-0.70;99.90;;;;;;5023075;28;20224;-42
2022/11/21 00:46:49;;;;;;;14.57;11.03;;;-0.70;99.90;;;;;;5003697;28;20212;-43
2022/11/21 00:49:17;;;;;;;18.50;11.23;;;-0.60;99.90;;;;;;5017794;28;20265;-42
2022/11/21 00:51:44;;;;;;;14.57;11.27;;;-0.60;99.90;;;;;;5013390;28;20643;-44
2022/11/21 00:54:11;;;;;;;16.77;10.97;;;-0.60;99.90;;;;;;5022704;28;20198;-45
2022/11/21 00:56:38;;;;;;;14.73;11.33;;;-0.60;99.90;;;;;;5016633;28;20227;-43
2022/11/21 00:59:05;;;;;;;20.03;12.40;;;-0.60;99.90;;;;;;5019014;28;20959;-42
2022/11/21 01:01:31;;;;;;;22.20;13.90;;;-0.60;99.90;;;;;;5006717;28;20732;-47
2022/11/21 01:03:58;;;;;;;19.60;12.67;;;-0.60;99.90;;;;;;5014298;28;20233;-47
2022/11/21 01:06:26;;;;;;;16.87;12.37;;;-0.60;99.90;;;;;;5016552;28;20220;-42
2022/11/21 01:08:53;;;;;;;16.63;11.90;;;-0.60;99.90;;;;;;5019172;28;20272;-42
2022/11/21 01:11:21;;;;;;;13.97;10.97;;;-0.60;99.90;;;;;;5023143;28;20675;-43
2022/11/21 01:13:48;;;;;;;13.03;9.17;;;-0.70;99.90;;;;;;5005606;28;20529;-42
2022/11/21 01:16:17;;;;;;;13.10;9.27;;;-0.80;99.90;;;;;;5007994;28;20273;-42
2022/11/21 01:18:45;;;;;;;14.23;9.77;;;-0.80;99.90;;;;;;5014680;28;20234;-45
2022/11/21 01:21:14;;;;;;;14.70;9.60;;;-0.80;99.90;;;;;;5022111;28;20209;-47
2022/11/21 01:23:42;;;;;;;8.57;7.67;;;-0.80;99.90;;;;;;5013202;28;20566;-47
2022/11/21 01:26:12;;;;;;;10.10;8.13;;;-0.80;99.90;;;;;;5021523;28;20218;-44
2022/11/21 01:28:39;;;;;;;10.40;7.23;;;-0.80;99.90;;;;;;5011685;28;20601;-43
2022/11/21 01:31:08;;;;;;;9.17;7.33;;;-0.80;99.90;;;;;;5021562;28;20189;-46
2022/11/21 01:33:35;;;;;;;8.73;7.53;;;-0.80;99.90;;;;;;5006120;28;20204;-47
2022/11/21 01:36:07;;;;;;;8.73;7.13;;;-0.80;99.90;;;;;;5014722;28;20244;-45
2022/11/21 01:38:34;;;;;;;8.77;7.07;;;-0.80;99.90;;;;;;5013473;28;20202;-43
2022/11/21 01:41:03;;;;;;;11.33;8.60;;;-0.70;99.90;;;;;;5020492;28;20188;-44
2022/11/21 01:43:29;;;;;;;11.10;8.17;;;-0.70;99.90;;;;;;5021781;28;20201;-48
2022/11/21 01:45:58;;;;;;;13.33;9.50;;;-0.70;99.90;;;;;;5013512;28;20221;-42
2022/11/21 01:48:29;;;;;;;12.33;9.33;;;-0.70;99.90;;;;;;5007846;28;20209;-42
2022/11/21 01:51:00;;;;;;;11.33;8.50;;;-0.70;99.90;;;;;;5012050;28;20209;-47
2022/11/21 01:53:26;;;;;;;10.83;9.13;;;-0.70;99.90;;;;;;5023465;28;20205;-43
2022/11/21 01:55:53;;;;;;;10.60;8.07;;;-0.70;99.90;;;;;;5015183;28;20212;-43
2022/11/21 01:58:23;;;;;;;8.77;7.57;;;-0.70;99.90;;;;;;5025571;28;20205;-42
2022/11/21 02:00:51;;;;;;;9.20;6.93;;;-0.70;99.90;;;;;;5009413;28;20225;-44
2022/11/21 02:03:24;;;;;;;9.93;7.43;;;-0.70;99.90;;;;;;5004560;28;20225;-49
2022/11/21 02:05:53;;;;;;;10.90;8.17;;;-0.70;99.90;;;;;;5011547;28;20220;-44
2022/11/21 02:08:23;;;;;;;8.97;7.30;;;-0.70;99.90;;;;;;5025536;28;20204;-46
2022/11/21 02:10:56;;;;;;;7.30;6.60;;;-0.70;99.90;;;;;;5015109;28;20192;-45
2022/11/21 02:13:25;;;;;;;8.93;6.70;;;-0.70;99.90;;;;;;5025581;28;20202;-43
2022/11/21 02:15:52;;;;;;;8.40;6.63;;;-0.70;99.90;;;;;;5015585;28;20228;-42
2022/11/21 02:18:18;;;;;;;10.97;7.00;;;-0.70;99.90;;;;;;5023995;28;20212;-44
2022/11/21 02:20:53;;;;;;;9.40;7.13;;;-0.70;99.90;;;;;;5006923;28;20210;-45
2022/11/21 02:23:26;;;;;;;7.77;6.07;;;-0.70;99.90;;;;;;5019703;28;20210;-46
2022/11/21 02:25:55;;;;;;;6.67;5.97;;;-0.80;99.90;;;;;;5015116;28;20932;-43
2022/11/21 02:28:24;;;;;;;7.73;6.37;;;-0.90;99.90;;;;;;5024175;28;20609;-49
2022/11/21 02:30:51;;;;;;;6.80;5.83;;;-0.90;99.90;;;;;;5015106;28;20208;-45
2022/11/21 02:33:18;;;;;;;7.87;6.33;;;-1.00;99.90;;;;;;5025179;28;20217;-47
2022/11/21 02:35:45;;;;;;;8.20;6.73;;;-1.00;99.90;;;;;;5006658;28;20229;-46
2022/11/21 02:38:19;;;;;;;9.93;6.97;;;-1.10;99.90;;;;;;5019830;28;20207;-43
2022/11/21 02:40:53;;;;;;;8.93;6.77;;;-1.10;99.90;;;;;;5012932;28;20204;-47
2022/11/21 02:43:24;;;;;;;10.63;7.13;;;-1.20;99.90;;;;;;5025095;28;20668;-43
2022/11/21 02:45:51;;;;;;;7.97;6.60;;;-1.20;99.90;;;;;;5015059;28;20221;-43
2022/11/21 02:48:18;;;;;;;10.07;6.97;;;-1.20;99.90;;;;;;5010219;28;20209;-62
2022/11/21 02:50:47;;;;;;;9.57;7.07;;;-1.20;99.90;;;;;;5005049;28;20286;-62
2022/11/21 02:53:16;;;;;;;7.70;6.57;;;-1.20;99.90;;;;;;5014711;28;20209;-62
2022/11/21 02:55:45;;;;;;;8.80;7.20;;;-1.30;99.90;;;;;;5013287;28;20236;-64
2022/11/21 02:58:12;;;;;;;9.30;6.87;;;-1.30;99.90;;;;;;5021981;28;20205;-62
2022/11/21 03:00:42;;;;;;;9.80;6.80;;;-1.30;99.90;;;;;;5024346;28;20208;-62
2022/11/21 03:03:09;;;;;;;8.17;6.50;;;-1.40;99.90;;;;;;5016259;28;20212;-63
2022/11/21 03:05:38;;;;;;;9.07;7.00;;;-1.40;99.90;;;;;;5008322;28;20221;-63
2022/11/21 03:08:05;;;;;;;8.23;7.03;;;-1.40;99.90;;;;;;5023060;28;20255;-62
2022/11/21 03:10:32;;;;;;;7.53;6.70;;;-1.40;99.90;;;;;;5011373;28;20784;-63
2022/11/21 03:13:00;;;;;;;8.07;6.70;;;-1.50;99.90;;;;;;5024574;28;20262;-62
2022/11/21 03:15:28;;;;;;;9.40;6.43;;;-1.50;99.90;;;;;;5021516;28;20217;-63
2022/11/21 03:17:56;;;;;;;8.57;6.47;;;-1.50;99.90;;;;;;5018667;28;20614;-62
2022/11/21 03:20:23;;;;;;;10.00;7.07;;;-1.50;99.90;;;;;;5005765;28;20212;-54
2022/11/21 03:22:52;;;;;;;7.80;6.07;;;-1.50;99.90;;;;;;5019498;28;20196;-64
2022/11/21 03:25:19;;;;;;;8.33;6.67;;;-1.50;99.90;;;;;;5018869;28;20234;-62
2022/11/21 03:27:46;;;;;;;8.83;5.63;;;-1.50;99.90;;;;;;5014014;28;20271;-62
2022/11/21 03:30:14;;;;;;;8.97;6.03;;;-1.50;99.90;;;;;;5024138;28;20667;-62
2022/11/21 03:32:41;;;;;;;7.37;6.00;;;-1.60;99.90;;;;;;5014641;28;20260;-62
2022/11/21 03:35:09;;;;;;;6.90;6.13;;;-1.60;99.90;;;;;;5019450;28;20225;-60
2022/11/21 03:37:36;;;;;;;7.33;5.50;;;-1.60;99.90;;;;;;5005778;28;20569;-61
2022/11/21 03:40:04;;;;;;;6.90;6.20;;;-1.60;99.90;;;;;;5015375;28;20216;-60
2022/11/21 03:42:30;;;;;;;8.27;5.53;;;-1.50;99.90;;;;;;5009322;28;20562;-59
2022/11/21 03:44:58;;;;;;;6.90;5.87;;;-1.40;99.90;;;;;;5022207;28;20935;-60
2022/11/21 03:47:26;;;;;;;7.07;6.33;;;-1.40;99.90;;;;;;5022737;28;20196;-62
2022/11/21 03:49:53;;;;;;;8.77;6.00;;;-1.40;99.90;;;;;;5015936;28;20216;-59
2022/11/21 03:52:21;;;;;;;9.20;6.13;;;-1.40;99.90;;;;;;5008309;28;20217;-59
2022/11/21 03:54:48;;;;;;;6.80;5.70;;;-1.40;99.90;;;;;;5015047;28;20845;-64
2022/11/21 03:57:15;;;;;;;9.77;6.13;;;-1.40;99.90;;;;;;5007131;28;20208;-64
2022/11/21 03:59:42;;;;;;;8.40;6.43;;;-1.40;99.90;;;;;;5020996;28;20218;-64
2022/11/21 04:02:09;;;;;;;8.43;6.27;;;-1.40;99.90;;;;;;5023711;28;20208;-64
2022/11/21 04:04:35;;;;;;;9.20;6.23;;;-1.40;99.90;;;;;;5010498;28;20229;-64
2022/11/21 04:07:02;;;;;;;7.10;6.17;;;-1.40;99.90;;;;;;5012512;28;20209;-64
2022/11/21 04:09:31;;;;;;;9.37;6.53;;;-1.40;99.90;;;;;;5021017;28;20210;-64
2022/11/21 04:11:57;;;;;;;8.30;6.33;;;-1.40;99.90;;;;;;5012367;28;20209;-63
2022/11/21 04:14:24;;;;;;;8.57;6.40;;;-1.40;99.90;;;;;;5022830;28;20255;-63
2022/11/21 04:16:51;;;;;;;8.47;7.03;;;-1.40;99.90;;;;;;5019226;28;20203;-63
2022/11/21 04:19:18;;;;;;;8.70;6.63;;;-1.40;99.90;;;;;;5014459;28;20200;-64
2022/11/21 04:21:45;;;;;;;7.37;6.60;;;-1.40;99.90;;;;;;5019443;28;20201;-64
2022/11/21 04:24:12;;;;;;;7.77;7.00;;;-1.50;99.90;;;;;;5009358;28;20701;-64
2022/11/21 04:26:40;;;;;;;7.83;6.80;;;-1.50;99.90;;;;;;5016334;28;20214;-64
2022/11/21 04:29:07;;;;;;;8.67;6.73;;;-1.50;99.90;;;;;;5022072;28;20206;-64
2022/11/21 04:31:34;;;;;;;8.17;6.33;;;-1.50;99.90;;;;;;5009133;28;20227;-62
2022/11/21 04:34:01;;;;;;;13.73;6.70;;;-1.50;99.90;;;;;;5019998;28;20200;-59
2022/11/21 04:36:28;;;;;;;8.50;6.87;;;-1.50;99.90;;;;;;5012981;28;20212;-57
2022/11/21 04:38:55;;;;;;;10.47;7.10;;;-1.50;99.90;;;;;;4993860;28;20668;-59
2022/11/21 04:41:22;;;;;;;10.43;8.00;;;-1.50;99.90;;;;;;5013134;28;20188;-58
2022/11/21 04:43:49;;;;;;;7.13;6.43;;;-1.50;99.90;;;;;;5016738;28;20208;-59
2022/11/21 04:46:16;;;;;;;9.53;6.90;;;-1.50;99.90;;;;;;5019032;28;20242;-57
2022/11/21 04:48:43;;;;;;;8.77;6.77;;;-1.50;99.90;;;;;;5022088;28;20207;-58
2022/11/21 04:51:10;;;;;;;7.60;6.63;;;-1.50;99.90;;;;;;5007377;28;20216;-59
2022/11/21 04:53:37;;;;;;;8.47;6.73;;;-1.60;99.90;;;;;;5006881;28;20212;-55
2022/11/21 04:56:05;;;;;;;8.50;7.13;;;-1.60;99.90;;;;;;5020198;28;20216;-58
2022/11/21 04:58:32;;;;;;;9.50;6.70;;;-1.60;99.90;;;;;;5017606;28;20211;-58
2022/11/21 05:01:05;;;;;;;8.47;6.90;;;-1.60;99.90;;;;;;5010329;28;20689;-58
2022/11/21 05:03:32;;;;;;;11.40;6.67;;;-1.60;99.90;;;;;;5019767;28;20203;-55
2022/11/21 05:05:59;;;;;;;8.40;6.87;;;-1.60;99.90;;;;;;5022110;28;20226;-59
2022/11/21 05:08:26;;;;;;;8.63;6.83;;;-1.70;99.90;;;;;;5011670;28;20196;-59
2022/11/21 05:13:36;;;;;;;11.10;7.23;;;-1.60;99.90;;;;;;5012583;28;20210;-61
2022/11/21 05:16:05;;;;;;;7.87;7.00;;;-1.70;99.90;;;;;;5009333;28;20224;-59
2022/11/21 05:18:32;;;;;;;10.67;7.47;;;-1.70;99.90;;;;;;5022514;28;20209;-61
2022/11/21 05:21:01;;;;;;;8.90;7.67;;;-1.70;99.90;;;;;;5008835;28;20228;-59
2022/11/21 05:23:27;;;;;;;9.93;7.43;;;-1.70;99.90;;;;;;5013624;28;20215;-61
2022/11/21 05:25:54;;;;;;;9.43;6.50;;;-1.70;99.90;;;;;;5003726;28;20217;-61
2022/11/21 05:28:21;;;;;;;8.47;6.70;;;-1.80;99.90;;;;;;5018463;28;20205;-61
2022/11/21 05:30:48;;;;;;;7.83;6.73;;;-1.90;99.90;;;;;;5012051;28;20204;-61
2022/11/21 05:33:19;;;;;;;9.50;7.10;;;-1.90;99.90;;;;;;5020469;28;20287;-59
2022/11/21 05:35:46;;;;;;;10.97;7.00;;;-1.90;99.90;;;;;;5016530;28;20220;-61
2022/11/21 05:38:14;;;;;;;9.63;6.93;;;-1.90;99.90;;;;;;5019480;28;20267;-60
2022/11/21 05:40:41;;;;;;;9.90;7.00;;;-2.00;99.90;;;;;;5007125;28;20222;-60
2022/11/21 05:45:54;;;;;;;8.60;6.03;;;-2.10;99.90;;;;;;5009115;28;20405;-62
2022/11/21 05:48:22;;;;;;;11.00;7.13;;;-2.20;99.90;;;;;;5010593;28;20196;-61
2022/11/21 05:50:49;;;;;;;8.10;6.53;;;-2.20;99.90;;;;;;5013894;28;20200;-60
2022/11/21 05:53:17;;;;;;;9.30;7.17;;;-2.30;99.90;;;;;;5015180;28;20290;-60
2022/11/21 05:55:44;;;;;;;10.93;7.33;;;-2.30;99.90;;;;;;5001570;28;20709;-61
2022/11/21 05:58:12;;;;;;;9.57;7.37;;;-2.30;99.90;;;;;;5018890;28;20268;-60
2022/11/21 06:00:39;;;;;;;10.67;7.57;;;-2.40;99.90;;;;;;5010435;28;20204;-62
2022/11/21 06:05:52;;;;;;;12.67;8.40;;;-2.30;99.90;;;;;;5015334;28;20231;-62
2022/11/21 06:08:19;;;;;;;16.93;8.63;;;-2.20;99.90;;;;;;5023998;28;20200;-62
2022/11/21 06:10:46;;;;;;;19.33;9.27;;;-2.20;99.90;;;;;;5001329;28;20204;-61
2022/11/21 06:13:21;;;;;;;24.03;10.27;;;-2.10;99.90;;;;;;5024690;28;20211;-53
2022/11/21 06:16:11;;;;;;;36.70;10.97;;;-2.10;99.90;;;;;;5024263;28;20231;-54
2022/11/21 06:18:40;;;;;;;28.57;11.73;;;-2.10;99.90;;;;;;5009631;28;20205;-53
2022/11/21 06:21:12;;;;;;;33.30;12.37;;;-2.00;99.90;;;;;;5018653;28;20228;-50
2022/11/21 06:23:39;;;;;;;24.23;10.33;;;-2.00;99.90;;;;;;5011156;28;20991;-51
2022/11/21 06:26:11;;;;;;;25.87;12.13;;;-2.00;99.90;;;;;;5001464;28;20232;-49
2022/11/21 06:28:40;;;;;;;42.07;15.17;;;-1.90;99.90;;;;;;5022487;28;20195;-54
2022/11/21 06:31:08;;;;;;;31.37;12.30;;;-1.90;99.90;;;;;;5011283;28;20207;-49
2022/11/21 06:33:35;;;;;;;30.50;11.53;;;-1.90;99.90;;;;;;5012019;28;20207;-49
2022/11/21 06:36:03;;;;;;;27.60;12.03;;;-1.90;99.90;;;;;;5015502;28;20225;-50
2022/11/21 06:38:31;;;;;;;18.73;11.00;;;-1.90;99.90;;;;;;5023816;28;20207;-52
2022/11/21 06:40:58;;;;;;;20.43;11.20;;;-1.90;99.90;;;;;;5016631;28;20211;-50
2022/11/21 06:43:25;;;;;;;12.17;9.23;;;-1.90;99.90;;;;;;5007303;28;20209;-52
2022/11/21 06:45:52;;;;;;;13.77;9.60;;;-1.90;99.90;;;;;;5007444;28;20945;-48
2022/11/21 06:48:19;;;;;;;16.40;10.93;;;-2.00;99.90;;;;;;5018102;28;20204;-52
2022/11/21 06:50:46;;;;;;;34.13;14.17;;;-2.00;99.90;;;;;;5013870;28;20684;-50
2022/11/21 06:53:14;;;;;;;22.40;11.80;;;-2.00;99.90;;;;;;5006748;28;20240;-53
2022/11/21 06:55:42;;;;;;;20.97;11.83;;;-2.00;99.90;;;;;;5018427;28;20698;-46
2022/11/21 06:58:09;;;;;;;19.67;11.00;;;-2.00;99.90;;;;;;5005441;28;20223;-51
2022/11/21 07:00:35;;;;;;;24.80;12.37;;;-2.00;99.90;;;;;;5020414;28;20222;-48
2022/11/21 07:03:03;;;;;;;25.63;12.50;;;-2.00;99.90;;;;;;5000603;28;20557;-49
2022/11/21 07:05:30;;;;;;;27.73;12.17;;;-1.90;99.90;;;;;;5010068;28;20224;-47
2022/11/21 07:07:59;;;;;;;25.77;12.23;;;-1.90;99.90;;;;;;5007894;28;20597;-52
2022/11/21 07:10:25;;;;;;;20.53;11.30;;;-1.90;99.90;;;;;;5020974;28;20181;-51
2022/11/21 07:15:42;;;;;;;33.80;14.07;;;-1.90;99.90;;;;;;5018720;28;20220;-51
2022/11/21 07:18:09;;;;;;;33.10;12.70;;;-1.90;99.90;;;;;;5006229;28;20200;-51
2022/11/21 07:20:36;;;;;;;24.50;11.67;;;-1.90;99.90;;;;;;5023020;28;20213;-50
2022/11/21 07:23:03;;;;;;;21.73;12.57;;;-1.80;99.90;;;;;;5011954;28;20196;-51
2022/11/21 07:25:30;;;;;;;24.17;12.00;;;-1.80;99.90;;;;;;5010945;28;20581;-51
2022/11/21 07:27:59;;;;;;;20.50;11.57;;;-1.70;99.90;;;;;;5000950;28;20300;-48
2022/11/21 07:30:26;;;;;;;20.33;10.90;;;-1.70;99.90;;;;;;5007010;28;20196;-50
2022/11/21 07:32:55;;;;;;;18.03;11.33;;;-1.70;99.90;;;;;;5003862;28;20431;-51
2022/11/21 07:35:22;;;;;;;18.77;10.93;;;-1.80;99.90;;;;;;5002045;28;20232;-45
2022/11/21 07:37:49;;;;;;;20.00;11.50;;;-1.70;99.90;;;;;;5018707;28;20203;-53
2022/11/21 07:40:16;;;;;;;16.90;10.60;;;-1.70;99.90;;;;;;5013707;28;20668;-51
2022/11/21 07:42:43;;;;;;;19.37;11.80;;;-1.70;99.90;;;;;;5014849;28;20208;-51
2022/11/21 07:45:13;;;;;;;17.57;11.13;;;-1.70;99.90;;;;;;5005494;28;20231;-48
2022/11/21 07:47:39;;;;;;;16.13;10.17;;;-1.70;99.90;;;;;;5004968;28;20736;-53
2022/11/21 07:50:09;;;;;;;19.50;10.53;;;-1.70;99.90;;;;;;5007549;28;20200;-49
2022/11/21 07:52:36;;;;;;;15.70;11.17;;;-1.70;99.90;;;;;;5023100;28;20219;-53
2022/11/21 07:55:04;;;;;;;18.63;10.07;;;-1.70;99.90;;;;;;5003166;28;21732;-50
2022/11/21 07:57:32;;;;;;;20.17;11.10;;;-1.70;99.90;;;;;;5014385;28;20208;-50
2022/11/21 07:59:59;;;;;;;15.40;10.07;;;-1.70;99.90;;;;;;5003024;28;20926;-51
2022/11/21 08:02:28;;;;;;;16.90;10.03;;;-1.70;99.90;;;;;;5014645;28;20546;-49
2022/11/21 08:04:55;;;;;;;20.40;11.00;;;-1.70;99.90;;;;;;5010420;28;20235;-52
2022/11/21 08:07:23;;;;;;;16.57;10.80;;;-1.60;99.90;;;;;;5012112;28;20563;-47
2022/11/21 08:09:50;;;;;;;17.90;11.17;;;-1.60;99.90;;;;;;5009262;28;20240;-52
2022/11/21 08:12:17;;;;;;;17.33;11.27;;;-1.50;99.90;;;;;;5013782;28;20259;-51
2022/11/21 08:14:44;;;;;;;18.23;10.97;;;-1.40;99.90;;;;;;5000979;28;20286;-52
2022/11/21 08:17:12;;;;;;;16.30;10.67;;;-1.20;99.90;;;;;;5009759;28;20208;-49
2022/11/21 08:19:40;;;;;;;19.87;12.10;;;-1.10;99.90;;;;;;5008075;28;20282;-51
2022/11/21 08:22:07;;;;;;;24.10;12.17;;;-1.00;99.90;;;;;;5007171;28;20196;-51
2022/11/21 08:24:35;;;;;;;23.97;12.43;;;-1.00;99.90;;;;;;5019500;28;20217;-50
2022/11/21 08:27:02;;;;;;;17.80;11.20;;;-0.90;99.90;;;;;;5010173;28;20235;-51
2022/11/21 08:29:29;;;;;;;23.10;13.30;;;-0.90;99.90;;;;;;5016366;28;20211;-53
2022/11/21 08:31:56;;;;;;;23.27;12.73;;;-0.80;99.90;;;;;;4994114;28;20573;-53
2022/11/21 08:34:23;;;;;;;24.13;13.10;;;-0.80;99.90;;;;;;5008343;28;20215;-50
2022/11/21 08:36:52;;;;;;;21.93;12.93;;;-0.70;99.90;;;;;;5006283;28;20203;-55
2022/11/21 08:39:19;;;;;;;30.83;14.50;;;-0.70;99.90;;;;;;5015494;28;20267;-49
2022/11/21 08:42:04;;;;;;;32.47;13.87;;;-0.70;99.90;;;;;;5004709;28;20211;-53
2022/11/21 08:44:34;;;;;;;30.50;13.50;;;-0.70;99.90;;;;;;5007845;28;20256;-51
2022/11/21 08:47:03;;;;;;;21.10;11.73;;;-0.70;99.90;;;;;;4991977;28;20234;-53
2022/11/21 08:49:30;;;;;;;25.33;12.57;;;-0.60;99.90;;;;;;5012196;28;20238;-61
2022/11/21 08:51:58;;;;;;;20.47;11.27;;;-0.60;99.90;;;;;;5004582;28;20810;-59
2022/11/21 08:54:24;;;;;;;39.73;15.43;;;-0.50;99.90;;;;;;5018795;28;20196;-52
2022/11/21 08:56:52;;;;;;;23.10;11.63;;;-0.50;99.90;;;;;;5010478;28;20197;-55
2022/11/21 08:59:19;;;;;;;26.30;12.87;;;-0.50;99.90;;;;;;5013518;28;20200;-52
2022/11/21 09:01:46;;;;;;;37.70;14.47;;;-0.50;99.90;;;;;;5002761;28;20577;-51
2022/11/21 09:04:12;;;;;;;21.20;11.80;;;-0.50;99.90;;;;;;5010306;28;20220;-50
2022/11/21 09:06:39;;;;;;;19.87;11.67;;;-0.40;99.90;;;;;;5008611;28;20236;-53
2022/11/21 09:09:07;;;;;;;23.27;12.77;;;-0.40;99.90;;;;;;5017921;28;20280;-52
2022/11/21 09:11:36;;;;;;;18.10;12.33;;;-0.40;99.90;;;;;;5013767;28;20205;-51
2022/11/21 09:19:32;;;;;;;20.03;11.70;;;-0.10;99.90;;;;;;5009258;28;20286;-51
2022/11/21 09:21:59;;;;;;;19.53;11.90;;;-0.10;99.90;;;;;;5013898;28;20588;-53
2022/11/21 09:24:29;;;;;;;22.03;12.50;;;0.00;99.90;;;;;;5010449;28;20208;-51
2022/11/21 09:26:56;;;;;;;19.80;12.83;;;0.20;99.90;;;;;;5022349;28;20673;-53
2022/11/21 09:29:23;;;;;;;14.70;9.87;;;0.40;99.90;;;;;;4994792;28;20282;-53
2022/11/21 09:31:49;;;;;;;16.53;12.00;;;0.40;99.90;;;;;;5012316;28;20228;-49
2022/11/21 09:34:17;;;;;;;18.83;11.87;;;0.40;99.90;;;;;;4996773;28;20225;-54
2022/11/21 09:36:44;;;;;;;21.13;12.67;;;0.40;99.90;;;;;;5012848;28;20335;-51
2022/11/21 09:39:10;;;;;;;16.07;11.13;;;0.40;99.90;;;;;;5007181;28;20259;-50
2022/11/21 09:41:54;;;;;;;17.13;10.90;;;0.40;99.90;;;;;;5016841;28;20209;-49
2022/11/21 09:44:35;;;;;;;15.90;10.47;;;0.50;99.90;;;;;;4998480;28;20709;-53
2022/11/21 09:47:11;;;;;;;17.27;10.90;;;0.50;99.90;;;;;;5010774;28;20599;-50
2022/11/21 09:49:43;;;;;;;17.83;10.40;;;0.40;99.90;;;;;;5013159;28;20202;-49
2022/11/21 09:52:13;;;;;;;18.07;10.70;;;0.50;99.90;;;;;;5016184;28;20221;-50
2022/11/21 09:54:46;;;;;;;17.67;10.33;;;0.50;99.90;;;;;;5013680;28;20221;-48
2022/11/21 09:57:17;;;;;;;19.30;11.90;;;0.60;99.90;;;;;;5013501;28;20194;-51
2022/11/21 09:59:46;;;;;;;20.63;12.97;;;0.70;99.90;;;;;;5010377;28;20211;-52
2022/11/21 10:02:15;;;;;;;19.60;11.63;;;0.80;99.90;;;;;;4996732;28;20695;-52
2022/11/21 10:04:42;;;;;;;17.40;11.77;;;1.00;99.90;;;;;;5014529;28;20731;-54
2022/11/21 10:07:16;;;;;;;20.47;12.83;;;1.10;99.90;;;;;;5005510;28;20229;-52
2022/11/21 10:09:57;;;;;;;19.00;11.97;;;1.10;99.90;;;;;;5009793;28;20215;-52
2022/11/21 10:12:39;;;;;;;21.63;13.30;;;1.20;99.90;;;;;;5006292;28;21932;-52
2022/11/21 10:15:21;;;;;;;21.60;11.43;;;1.30;99.90;;;;;;5011052;28;20310;-55
2022/11/21 10:18:01;;;;;;;15.87;11.33;;;1.40;99.90;;;;;;4989106;28;21099;-51
2022/11/21 10:20:38;;;;;;;21.40;10.60;;;1.40;99.90;;;;;;5015614;28;20192;-53
2022/11/21 10:23:29;;;;;;;12.30;8.83;;;1.40;99.90;;;;;;5010030;28;20288;-50
2022/11/21 10:26:00;;;;;;;12.73;9.17;;;1.40;99.90;;;;;;5006145;28;20246;-54
2022/11/21 10:28:38;;;;;;;13.10;8.63;;;1.40;99.90;;;;;;5007502;28;20242;-50
2022/11/21 10:31:10;;;;;;;18.53;10.83;;;1.50;99.90;;;;;;5008070;28;20199;-48
2022/11/21 10:33:39;;;;;;;12.47;8.80;;;1.50;99.90;;;;;;5008295;28;20211;-54
2022/11/21 10:36:12;;;;;;;16.90;9.60;;;1.50;99.90;;;;;;5008965;28;20226;-50
2022/11/21 10:38:43;;;;;;;17.17;9.27;;;1.50;99.90;;;;;;5000495;28;20204;-53
2022/11/21 10:41:17;;;;;;;16.60;10.23;;;1.60;99.90;;;;;;5016400;28;20206;-52
2022/11/21 10:46:37;;;;;;;12.33;8.97;;;1.70;99.90;;;;;;5012664;28;20257;-52
2022/11/21 10:49:06;;;;;;;15.40;9.07;;;1.60;99.90;;;;;;5015219;28;20291;-50
2022/11/21 10:51:44;;;;;;;15.53;9.47;;;1.70;99.90;;;;;;5004669;28;20216;-51
2022/11/21 10:54:34;;;;;;;14.13;8.47;;;1.70;99.90;;;;;;5015544;28;20206;-51
2022/11/21 10:57:07;;;;;;;14.23;8.47;;;1.90;99.90;;;;;;5011955;28;20200;-59
2022/11/21 10:59:35;;;;;;;13.80;8.37;;;1.90;99.90;;;;;;5020648;28;20203;-61
2022/11/21 11:02:23;;;;;;;16.63;9.43;;;1.90;99.90;;;;;;5015325;28;20204;-54
2022/11/21 11:05:18;;;;;;;13.43;7.93;;;2.00;99.90;;;;;;5013519;28;20268;-49
2022/11/21 11:08:00;;;;;;;8.33;6.17;;;1.90;99.90;;;;;;5008469;28;20305;-46
2022/11/21 11:10:27;;;;;;;10.23;7.43;;;1.90;99.90;;;;;;5009439;28;20215;-55
2022/11/21 11:15:57;;;;;;;10.17;7.13;;;2.00;99.90;;;;;;5008857;28;20308;-60
2022/11/21 11:18:25;;;;;;;8.80;6.80;;;2.10;99.90;;;;;;5008298;28;20249;-59
2022/11/21 11:20:52;;;;;;;19.43;8.67;;;2.10;99.90;;;;;;4994776;28;20290;-62
2022/11/21 11:23:27;;;;;;;7.83;6.10;;;2.10;99.90;;;;;;5017180;28;20365;-59
2022/11/21 11:25:55;;;;;;;22.33;9.33;;;2.10;99.90;;;;;;5010289;28;20221;-58
2022/11/21 11:28:23;;;;;;;15.30;9.77;;;2.10;99.90;;;;;;5008772;28;20715;-58
2022/11/21 11:30:53;;;;;;;15.07;7.53;;;2.10;99.90;;;;;;5012090;28;20204;-58
2022/11/21 11:33:36;;;;;;;10.27;7.37;;;2.20;99.90;;;;;;5012374;28;20611;-59
2022/11/21 11:36:13;;;;;;;9.87;7.33;;;2.30;99.90;;;;;;5014059;28;20727;-58
2022/11/21 11:38:43;;;;;;;10.10;7.27;;;2.50;99.90;;;;;;4996074;28;20431;-58
2022/11/21 11:41:19;;;;;;;12.07;7.50;;;2.50;99.90;;;;;;5004566;28;20637;-59
2022/11/21 11:52:26;;;;;;;7.63;6.43;;;2.80;99.90;;;;;;5000888;28;20208;-58
2022/11/21 11:54:58;;;;;;;12.23;6.13;;;2.90;99.90;;;;;;5008181;28;21738;-59
2022/11/21 11:57:27;;;;;;;8.27;6.23;;;2.90;99.90;;;;;;5006127;28;20289;-58
2022/11/21 12:00:03;;;;;;;9.30;6.47;;;3.00;99.90;;;;;;5016060;28;20204;-57
2022/11/21 12:02:48;;;;;;;8.97;6.83;;;3.00;99.90;;;;;;5005843;28;20316;-57
2022/11/21 12:05:23;;;;;;;8.47;5.47;;;3.10;99.90;;;;;;5024052;28;20248;-58
2022/11/21 12:08:01;;;;;;;13.47;7.60;;;3.20;99.90;;;;;;4998662;28;20227;-58
2022/11/21 12:10:33;;;;;;;8.63;6.20;;;3.20;99.90;;;;;;5012719;28;20201;-58
2022/11/21 12:13:09;;;;;;;7.57;5.63;;;3.20;99.90;;;;;;5013014;28;20204;-58
2022/11/21 12:15:49;;;;;;;9.03;6.10;;;3.30;99.90;;;;;;5009814;28;20299;-57
2022/11/21 12:18:26;;;;;;;8.00;5.30;;;3.40;99.90;;;;;;5000744;28;20736;-58
2022/11/21 12:21:00;;;;;;;6.50;5.30;;;3.50;99.90;;;;;;5006031;28;20467;-57
2022/11/21 12:23:31;;;;;;;8.03;5.23;;;3.60;99.90;;;;;;4993795;28;20207;-56
2022/11/21 12:26:12;;;;;;;7.53;5.50;;;3.60;99.90;;;;;;5002445;28;20228;-58
2022/11/21 12:28:54;;;;;;;6.87;5.20;;;3.60;99.90;;;;;;5002898;28;21619;-58
2022/11/21 12:31:29;;;;;;;5.97;4.57;;;3.60;99.90;;;;;;5010451;28;20208;-58
2022/11/21 12:34:07;;;;;;;11.87;5.93;;;3.60;99.90;;;;;;5003444;28;20291;-58
2022/11/21 12:36:40;;;;;;;7.57;5.33;;;3.60;99.90;;;;;;5017694;28;20302;-58
2022/11/21 12:39:28;;;;;;;8.43;5.50;;;3.50;99.90;;;;;;4990817;28;20212;-59
2022/11/21 12:44:59;;;;;;;10.20;5.83;;;3.60;99.90;;;;;;5004303;28;20215;-58
2022/11/21 12:56:33;;;;;;;4.83;3.97;;;3.50;99.90;;;;;;4993004;28;20226;-56
2022/11/21 12:59:03;;;;;;;5.67;3.80;;;3.50;99.90;;;;;;4990021;28;20293;-53
2022/11/21 13:01:38;;;;;;;8.70;4.10;;;3.50;99.90;;;;;;5008690;28;20223;-62
2022/11/21 13:04:09;;;;;;;7.17;5.20;;;3.40;99.90;;;;;;5003523;28;20221;-54
2022/11/21 13:06:40;;;;;;;6.00;4.23;;;3.40;99.90;;;;;;5014485;28;20235;-46
2022/11/21 13:09:12;;;;;;;5.30;3.77;;;3.40;99.90;;;;;;5008202;28;20222;-61
2022/11/21 13:12:00;;;;;;;7.57;4.73;;;3.40;99.90;;;;;;4999764;28;20211;-55
2022/11/21 13:14:35;;;;;;;4.33;3.50;;;3.40;99.90;;;;;;5015843;28;20192;-51
2022/11/21 13:17:20;;;;;;;6.57;4.83;;;3.50;99.90;;;;;;5005448;28;20209;-50
2022/11/21 13:19:52;;;;;;;7.83;4.27;;;3.50;99.90;;;;;;4999906;28;20661;-50
2022/11/21 13:22:51;;;;;;;5.40;3.97;;;3.50;99.90;;;;;;5008635;28;20311;-48
2022/11/21 13:25:37;;;;;;;4.33;3.87;;;3.40;99.90;;;;;;4997575;28;20238;-51
2022/11/21 13:28:23;;;;;;;5.80;4.23;;;3.40;99.90;;;;;;5001965;28;20247;-49
2022/11/21 13:30:51;;;;;;;5.17;4.30;;;3.40;99.90;;;;;;4993566;28;20291;-54
2022/11/21 13:33:52;;;;;;;6.50;4.43;;;3.40;99.90;;;;;;5014399;28;20207;-49
2022/11/21 13:36:49;;;;;;;10.60;4.63;;;3.40;99.90;;;;;;5004288;28;20235;-54